SOCA

Details ICAO SOCA (CAY)
Name Cayenne Rochambeau
Region French Guiana
Timezone America/Cayenne (UTC-3.0)
Plans Departing 176
Arriving 178
Stats Elevation 26 ft / 8 m (AMSL)
Location 4.819807° -52.360446°
Runways 1
Magnetic Variation 18.398° W
Sunrise 2018-05-28 09:16:59 UTC / 2018-05-28 06:16:59 Local
Sunset 2018-05-28 21:39:23 UTC / 2018-05-28 18:39:23 Local
Advertisement - Login to hide

Runways

ID Width Length Bearing (true) Bearing (mag) Surface Threshold Offset Overrun Length
08 148 ft / 45 m 10,489 ft / 3,197 m 65.20° 83.60° Asphalt 0 ft / 0 m 244 ft / 74 m
26 148 ft / 45 m 10,489 ft / 3,197 m 245.20° 263.60° Asphalt 0 ft / 0 m 0 ft / 0 m

Map

Weather


0- 5 10 15 20 25 30 35+ Temperature / ° C

Clouds and Precipitation
Forecast for 2018-05-28 00:00 UTC. Updated 4 hours ago

Ground ~20,000 ft ~40,000 ft Winds

METAR

SOCA 280300Z AUTO 00000KT 9999 SCT025 SCT031 24/24 Q1014 NOSIG

TAF

TAF SOCA 272200Z 2800/2824 VRB03KT 9999 FEW020 PROB30 TEMPO 2809/2824 4000 SHRA FEW012TCU FM281400 08012KT 9999 SCT020 BKN040

Frequencies

Recorded 132.20 MHz ATIS
Approach 119.90 MHz APP
Tower 118.10 MHz TWR
Warning: Do not use this data for real-world aviation or navigation. No guarantee of current accuracy is given.